Club Med II — FNIR — position and weather

sailwx.info

Track history (hours):
 
Tides and Currents Weather Stations Pressure Air Temp Water Temp Dewpoint Dewpoint Depression Visibility Wind Speed Wind Dir Waves Ship Positions

Club Med II

Operator: V.Ships Leisure S.A.M

Last reported at 2017-Jul-23 03:05 UTC. Time now 2017-Jul-24 08:26 UTC.
Position N 36°02' E 016°46'.

Length 187 m; draft 5.2 m.

Type: Ship. MMSI: 227194000.

Date/timePositionNaut miles runAvg speedWind from/ knotsBaromVisibWave heightAir tempDewpointWater temp
2017-Jul-23 03:05N 36°02' E 016°46'112.6
2017-Jul-23 03:00N 36°02' E 016°45'712.6
2017-Jul-23 02:28N 36°02' E 016°37'1512.3
2017-Jul-23 01:13N 36°02' E 016°18'312.3
2017-Jul-23 00:58N 36°01' E 016°14'1212.1
2017-Jul-22 23:56N 36°01' E 015°58'511.6
2017-Jul-22 23:30N 36°01' E 015°52'611.8
2017-Jul-22 23:00N 35°60' E 015°45'612.2
2017-Jul-22 22:30N 35°59' E 015°37'612.4
2017-Jul-22 22:01N 35°59' E 015°30'612.4
2017-Jul-22 21:30N 35°59' E 015°22'612.5
2017-Jul-22 21:00N 36°00' E 015°14'612.6
2017-Jul-22 20:30N 36°01' E 015°07'612.7
2017-Jul-22 20:00N 36°02' E 014°59'612.9
2017-Jul-22 19:30N 36°02' E 014°51'612.7
2017-Jul-22 19:00N 35°59' E 014°44'612.9
2017-Jul-22 18:30N 35°56' E 014°37'510.1
2017-Jul-22 18:00N 35°54' E 014°31'1 1.3
2017-Jul-22 17:25N 35°54' E 014°31'0 0.0
2017-Jul-22 06:01N 35°54' E 014°31'0 0.0
2017-Jul-22 04:43N 35°54' E 014°31'0 0.0
2017-Jul-22 04:13N 35°54' E 014°31'0 0.0
2017-Jul-22 03:55N 35°54' E 014°31'0 0.0
2017-Jul-22 03:25N 35°54' E 014°31'0 0.0
2017-Jul-22 02:55N 35°54' E 014°31'0 0.0
2017-Jul-22 02:19N 35°54' E 014°31'0 0.0
2017-Jul-22 01:55N 35°54' E 014°31'0 0.0
2017-Jul-22 01:28N 35°54' E 014°31'0 0.0
2017-Jul-22 00:40N 35°54' E 014°31'0 0.0
2017-Jul-22 00:28N 35°54' E 014°31'0 0.0
2017-Jul-21 23:58N 35°54' E 014°31'0 0.0
2017-Jul-21 23:28N 35°54' E 014°31'0 0.0
2017-Jul-21 22:13N 35°54' E 014°31'0 0.0
2017-Jul-21 21:55N 35°54' E 014°31'0 0.0
2017-Jul-21 21:28N 35°54' E 014°31'0 0.0
2017-Jul-21 20:55N 35°54' E 014°31'0 0.0
2017-Jul-21 20:22N 35°54' E 014°31'0 0.0
2017-Jul-21 17:58N 35°54' E 014°31'0 0.0
2017-Jul-21 17:07N 35°54' E 014°31'0 0.0
2017-Jul-21 17:00N 35°54' E 014°31'1 2.4
2017-Jul-21 16:30N 35°54' E 014°32'2 4.0
2017-Jul-21 16:00N 35°56' E 014°31'3 6.7
2017-Jul-21 15:30N 35°59' E 014°29'3 6.6
2017-Jul-21 15:00N 36°01' E 014°26'3 6.7
2017-Jul-21 14:30N 36°04' E 014°23'4 7.2
2017-Jul-21 14:00N 36°05' E 014°19'3 7.0
2017-Jul-21 13:30N 36°05' E 014°15'4 7.3
2017-Jul-21 13:00N 36°04' E 014°10'4 7.4
2017-Jul-21 12:30N 36°01' E 014°13'4 7.8
2017-Jul-21 12:00N 36°01' E 014°17'1 1.8
2017-Jul-21 11:30N 36°01' E 014°18'0 0.0
2017-Jul-21 10:58N 36°01' E 014°18'0 0.0
2017-Jul-21 10:28N 36°01' E 014°18'0 0.0
2017-Jul-21 09:58N 36°01' E 014°18'0 0.0
2017-Jul-21 09:28N 36°01' E 014°18'0 0.0
2017-Jul-21 08:58N 36°01' E 014°18'0 0.0
2017-Jul-21 08:28N 36°01' E 014°18'0 0.0
2017-Jul-21 07:58N 36°01' E 014°18'0 0.0
2017-Jul-21 07:28N 36°01' E 014°18'0 0.0
2017-Jul-21 06:55N 36°01' E 014°18'0 0.0
2017-Jul-21 06:28N 36°01' E 014°18'1 1.7
2017-Jul-21 06:00N 36°01' E 014°17'510.2
2017-Jul-21 05:30N 36°01' E 014°11'4 8.8
2017-Jul-21 05:00N 36°05' E 014°10'510.3
2017-Jul-21 04:30N 36°08' E 014°15'611.4
2017-Jul-21 04:00N 36°12' E 014°21'611.2
2017-Jul-21 03:30N 36°15' E 014°26'510.7
2017-Jul-21 03:00N 36°18' E 014°32'611.1
2017-Jul-21 02:30N 36°20' E 014°38'511.1
2017-Jul-21 02:00N 36°23' E 014°44'611.1
2017-Jul-21 01:30N 36°26' E 014°50'511.0
2017-Jul-21 01:00N 36°29' E 014°56'610.8
2017-Jul-21 00:30N 36°32' E 015°01'510.9
2017-Jul-21 00:00N 36°35' E 015°07'811.4
2017-Jul-20 23:15N 36°41' E 015°15'311.7
2017-Jul-20 23:00N 36°44' E 015°17'55 2.0
2017-Jul-19 19:12N 37°38' E 015°28'1 5.9
2017-Jul-19 18:58N 37°39' E 015°27'3 5.8
2017-Jul-19 18:30N 37°41' E 015°25'3 5.7
2017-Jul-19 18:00N 37°43' E 015°23'20 1.4
2017-Jul-19 04:00N 38°02' E 015°30'510.7
2017-Jul-19 03:30N 38°07' E 015°33'5 9.7
2017-Jul-19 03:00N 38°11' E 015°36'510.0
2017-Jul-19 02:30N 38°15' E 015°39'5 9.6
2017-Jul-19 01:58N 38°21' E 015°39'4 8.7
2017-Jul-19 01:29N 38°24' E 015°36'4 8.9
2017-Jul-19 01:00N 38°28' E 015°34'5 9.8
2017-Jul-19 00:30N 38°33' E 015°31'5 9.9
2017-Jul-19 00:00N 38°37' E 015°28'8 9.9
2017-Jul-18 23:12N 38°44' E 015°23'21 3.1
2017-Jul-18 16:25N 38°32' E 015°01'510.6
2017-Jul-18 15:59N 38°28' E 014°58'0 0.3
2017-Jul-18 15:05N 38°28' E 014°58'0 0.1
2017-Jul-18 14:53N 38°28' E 014°58'0 0.0
2017-Jul-18 13:53N 38°28' E 014°58'0 0.0
2017-Jul-18 10:35N 38°28' E 014°58'0 0.0
2017-Jul-18 09:35N 38°28' E 014°58'0 0.0
2017-Jul-18 09:11N 38°28' E 014°58'0 0.1
2017-Jul-18 08:47N 38°28' E 014°58'0 0.0
2017-Jul-18 08:05N 38°28' E 014°58'0 0.1
2017-Jul-18 07:53N 38°28' E 014°58'0 0.0
2017-Jul-18 07:11N 38°28' E 014°58'0 0.0
2017-Jul-18 06:11N 38°28' E 014°58'0 0.0
2017-Jul-18 05:47N 38°28' E 014°58'0 1.5
2017-Jul-18 05:29N 38°28' E 014°58'4 6.7
2017-Jul-18 04:52N 38°32' E 015°00'7 8.0
2017-Jul-18 03:57N 38°39' E 015°01'117 3.5
2017-Jul-16 18:22N 40°29' E 014°07'5 9.5
2017-Jul-16 17:49N 40°33' E 014°11'2 0.1
2017-Jul-15 19:27N 40°34' E 014°14'612.6
2017-Jul-15 19:00N 40°40' E 014°15'714.2
2017-Jul-15 18:30N 40°47' E 014°16'10 0.2
2017-Jul-13 16:35N 40°36' E 014°17'111.6
2017-Jul-13 16:31N 40°37' E 014°17'4 8.8
2017-Jul-13 16:01N 40°39' E 014°22'0 0.6
2017-Jul-13 15:29N 40°38' E 014°23'0 0.0
2017-Jul-13 14:59N 40°38' E 014°23'0 0.0
2017-Jul-13 14:29N 40°38' E 014°23'0 0.0
2017-Jul-13 13:59N 40°38' E 014°23'0 0.0
2017-Jul-13 13:29N 40°38' E 014°23'0 0.0
2017-Jul-13 12:59N 40°38' E 014°23'0 0.0
2017-Jul-13 12:29N 40°38' E 014°23'0 0.1
2017-Jul-13 11:59N 40°38' E 014°23'0 0.0
2017-Jul-13 11:29N 40°38' E 014°23'0 0.0
2017-Jul-13 10:59N 40°38' E 014°23'0 0.0
2017-Jul-13 10:17N 40°38' E 014°23'0 0.0
2017-Jul-13 09:47N 40°38' E 014°23'0 0.0
2017-Jul-13 09:20N 40°38' E 014°23'0 0.0
2017-Jul-13 08:53N 40°38' E 014°23'0 0.0
2017-Jul-13 08:20N 40°38' E 014°23'0 0.0
2017-Jul-13 07:53N 40°38' E 014°23'0 0.1
2017-Jul-13 07:23N 40°38' E 014°23'0 0.0
2017-Jul-13 06:53N 40°38' E 014°23'0 0.0
2017-Jul-13 06:23N 40°38' E 014°23'0 0.0
2017-Jul-13 05:53N 40°38' E 014°23'0 0.0
2017-Jul-13 05:26N 40°38' E 014°23'  
Track history (hours):
 
Tides and Currents Weather Stations Pressure Air Temp Water Temp Dewpoint Dewpoint Depression Visibility Wind Speed Wind Dir Waves Ship Positions

Club Med II

Operator: V.Ships Leisure S.A.M

Last reported at 2017-Jul-23 03:05 UTC. Time now 2017-Jul-24 08:26 UTC.
Position N 36°02' E 016°46'.

Length 187 m; draft 5.2 m.

Type: Ship. MMSI: 227194000.

Date/timePositionNaut miles runAvg speedWind from/ knotsBaromVisibWave heightAir tempDewpointWater temp
2017-Jul-23 03:05N 36°02' E 016°46'112.6
2017-Jul-23 03:00N 36°02' E 016°45'712.6
2017-Jul-23 02:28N 36°02' E 016°37'1512.3
2017-Jul-23 01:13N 36°02' E 016°18'312.3
2017-Jul-23 00:58N 36°01' E 016°14'1212.1
2017-Jul-22 23:56N 36°01' E 015°58'511.6
2017-Jul-22 23:30N 36°01' E 015°52'611.8
2017-Jul-22 23:00N 35°60' E 015°45'612.2
2017-Jul-22 22:30N 35°59' E 015°37'612.4
2017-Jul-22 22:01N 35°59' E 015°30'612.4
2017-Jul-22 21:30N 35°59' E 015°22'612.5
2017-Jul-22 21:00N 36°00' E 015°14'612.6
2017-Jul-22 20:30N 36°01' E 015°07'612.7
2017-Jul-22 20:00N 36°02' E 014°59'612.9
2017-Jul-22 19:30N 36°02' E 014°51'612.7
2017-Jul-22 19:00N 35°59' E 014°44'612.9
2017-Jul-22 18:30N 35°56' E 014°37'510.1
2017-Jul-22 18:00N 35°54' E 014°31'1 1.3
2017-Jul-22 17:25N 35°54' E 014°31'0 0.0
2017-Jul-22 06:01N 35°54' E 014°31'0 0.0
2017-Jul-22 04:43N 35°54' E 014°31'0 0.0
2017-Jul-22 04:13N 35°54' E 014°31'0 0.0
2017-Jul-22 03:55N 35°54' E 014°31'0 0.0
2017-Jul-22 03:25N 35°54' E 014°31'0 0.0
2017-Jul-22 02:55N 35°54' E 014°31'0 0.0
2017-Jul-22 02:19N 35°54' E 014°31'0 0.0
2017-Jul-22 01:55N 35°54' E 014°31'0 0.0
2017-Jul-22 01:28N 35°54' E 014°31'0 0.0
2017-Jul-22 00:40N 35°54' E 014°31'0 0.0
2017-Jul-22 00:28N 35°54' E 014°31'0 0.0
2017-Jul-21 23:58N 35°54' E 014°31'0 0.0
2017-Jul-21 23:28N 35°54' E 014°31'0 0.0
2017-Jul-21 22:13N 35°54' E 014°31'0 0.0
2017-Jul-21 21:55N 35°54' E 014°31'0 0.0
2017-Jul-21 21:28N 35°54' E 014°31'0 0.0
2017-Jul-21 20:55N 35°54' E 014°31'0 0.0
2017-Jul-21 20:22N 35°54' E 014°31'0 0.0
2017-Jul-21 17:58N 35°54' E 014°31'0 0.0
2017-Jul-21 17:07N 35°54' E 014°31'0 0.0
2017-Jul-21 17:00N 35°54' E 014°31'1 2.4
2017-Jul-21 16:30N 35°54' E 014°32'2 4.0
2017-Jul-21 16:00N 35°56' E 014°31'3 6.7
2017-Jul-21 15:30N 35°59' E 014°29'3 6.6
2017-Jul-21 15:00N 36°01' E 014°26'3 6.7
2017-Jul-21 14:30N 36°04' E 014°23'4 7.2
2017-Jul-21 14:00N 36°05' E 014°19'3 7.0
2017-Jul-21 13:30N 36°05' E 014°15'4 7.3
2017-Jul-21 13:00N 36°04' E 014°10'4 7.4
2017-Jul-21 12:30N 36°01' E 014°13'4 7.8
2017-Jul-21 12:00N 36°01' E 014°17'1 1.8
2017-Jul-21 11:30N 36°01' E 014°18'0 0.0
2017-Jul-21 10:58N 36°01' E 014°18'0 0.0
2017-Jul-21 10:28N 36°01' E 014°18'0 0.0
2017-Jul-21 09:58N 36°01' E 014°18'0 0.0
2017-Jul-21 09:28N 36°01' E 014°18'0 0.0
2017-Jul-21 08:58N 36°01' E 014°18'0 0.0
2017-Jul-21 08:28N 36°01' E 014°18'0 0.0
2017-Jul-21 07:58N 36°01' E 014°18'0 0.0
2017-Jul-21 07:28N 36°01' E 014°18'0 0.0
2017-Jul-21 06:55N 36°01' E 014°18'0 0.0
2017-Jul-21 06:28N 36°01' E 014°18'1 1.7
2017-Jul-21 06:00N 36°01' E 014°17'510.2
2017-Jul-21 05:30N 36°01' E 014°11'4 8.8
2017-Jul-21 05:00N 36°05' E 014°10'510.3
2017-Jul-21 04:30N 36°08' E 014°15'611.4
2017-Jul-21 04:00N 36°12' E 014°21'611.2
2017-Jul-21 03:30N 36°15' E 014°26'510.7
2017-Jul-21 03:00N 36°18' E 014°32'611.1
2017-Jul-21 02:30N 36°20' E 014°38'511.1
2017-Jul-21 02:00N 36°23' E 014°44'611.1
2017-Jul-21 01:30N 36°26' E 014°50'511.0
2017-Jul-21 01:00N 36°29' E 014°56'610.8
2017-Jul-21 00:30N 36°32' E 015°01'510.9
2017-Jul-21 00:00N 36°35' E 015°07'811.4
2017-Jul-20 23:15N 36°41' E 015°15'311.7
2017-Jul-20 23:00N 36°44' E 015°17'55 2.0
2017-Jul-19 19:12N 37°38' E 015°28'1 5.9
2017-Jul-19 18:58N 37°39' E 015°27'3 5.8
2017-Jul-19 18:30N 37°41' E 015°25'3 5.7
2017-Jul-19 18:00N 37°43' E 015°23'20 1.4
2017-Jul-19 04:00N 38°02' E 015°30'510.7
2017-Jul-19 03:30N 38°07' E 015°33'5 9.7
2017-Jul-19 03:00N 38°11' E 015°36'510.0
2017-Jul-19 02:30N 38°15' E 015°39'5 9.6
2017-Jul-19 01:58N 38°21' E 015°39'4 8.7
2017-Jul-19 01:29N 38°24' E 015°36'4 8.9
2017-Jul-19 01:00N 38°28' E 015°34'5 9.8
2017-Jul-19 00:30N 38°33' E 015°31'5 9.9
2017-Jul-19 00:00N 38°37' E 015°28'8 9.9
2017-Jul-18 23:12N 38°44' E 015°23'21 3.1
2017-Jul-18 16:25N 38°32' E 015°01'510.6
2017-Jul-18 15:59N 38°28' E 014°58'0 0.3
2017-Jul-18 15:05N 38°28' E 014°58'0 0.1
2017-Jul-18 14:53N 38°28' E 014°58'0 0.0
2017-Jul-18 13:53N 38°28' E 014°58'0 0.0
2017-Jul-18 10:35N 38°28' E 014°58'0 0.0
2017-Jul-18 09:35N 38°28' E 014°58'0 0.0
2017-Jul-18 09:11N 38°28' E 014°58'0 0.1
2017-Jul-18 08:47N 38°28' E 014°58'0 0.0
2017-Jul-18 08:05N 38°28' E 014°58'0 0.1
2017-Jul-18 07:53N 38°28' E 014°58'0 0.0
2017-Jul-18 07:11N 38°28' E 014°58'0 0.0
2017-Jul-18 06:11N 38°28' E 014°58'0 0.0
2017-Jul-18 05:47N 38°28' E 014°58'0 1.5
2017-Jul-18 05:29N 38°28' E 014°58'4 6.7
2017-Jul-18 04:52N 38°32' E 015°00'7 8.0
2017-Jul-18 03:57N 38°39' E 015°01'117 3.5
2017-Jul-16 18:22N 40°29' E 014°07'5 9.5
2017-Jul-16 17:49N 40°33' E 014°11'2 0.1
2017-Jul-15 19:27N 40°34' E 014°14'612.6
2017-Jul-15 19:00N 40°40' E 014°15'714.2
2017-Jul-15 18:30N 40°47' E 014°16'10 0.2
2017-Jul-13 16:35N 40°36' E 014°17'111.6
2017-Jul-13 16:31N 40°37' E 014°17'4 8.8
2017-Jul-13 16:01N 40°39' E 014°22'0 0.6
2017-Jul-13 15:29N 40°38' E 014°23'0 0.0
2017-Jul-13 14:59N 40°38' E 014°23'0 0.0
2017-Jul-13 14:29N 40°38' E 014°23'0 0.0
2017-Jul-13 13:59N 40°38' E 014°23'0 0.0
2017-Jul-13 13:29N 40°38' E 014°23'0 0.0
2017-Jul-13 12:59N 40°38' E 014°23'0 0.0
2017-Jul-13 12:29N 40°38' E 014°23'0 0.1
2017-Jul-13 11:59N 40°38' E 014°23'0 0.0
2017-Jul-13 11:29N 40°38' E 014°23'0 0.0
2017-Jul-13 10:59N 40°38' E 014°23'0 0.0
2017-Jul-13 10:17N 40°38' E 014°23'0 0.0
2017-Jul-13 09:47N 40°38' E 014°23'0 0.0
2017-Jul-13 09:20N 40°38' E 014°23'0 0.0
2017-Jul-13 08:53N 40°38' E 014°23'0 0.0
2017-Jul-13 08:20N 40°38' E 014°23'0 0.0
2017-Jul-13 07:53N 40°38' E 014°23'0 0.1
2017-Jul-13 07:23N 40°38' E 014°23'0 0.0
2017-Jul-13 06:53N 40°38' E 014°23'0 0.0
2017-Jul-13 06:23N 40°38' E 014°23'0 0.0
2017-Jul-13 05:53N 40°38' E 014°23'0 0.0
2017-Jul-13 05:26N 40°38' E 014°23'  

Dump ship's entire track history